sensor_id;sensor_type;location;lat;lon;timestamp;temperature;humidity
3208;DHT22;1616;52.394;9.756;2024-02-21T00:01:07;9.20;99.90
3208;DHT22;1616;52.394;9.756;2024-02-21T00:03:34;9.20;99.90
3208;DHT22;1616;52.394;9.756;2024-02-21T00:06:01;9.20;99.90
3208;DHT22;1616;52.394;9.756;2024-02-21T00:08:26;9.20;99.90
3208;DHT22;1616;52.394;9.756;2024-02-21T00:10:53;9.20;99.90
3208;DHT22;1616;52.394;9.756;2024-02-21T00:13:19;9.20;99.90
3208;DHT22;1616;52.394;9.756;2024-02-21T00:15:44;9.30;99.90
3208;DHT22;1616;52.394;9.756;2024-02-21T00:18:11;9.30;99.90
3208;DHT22;1616;52.394;9.756;2024-02-21T00:20:36;9.30;99.90
3208;DHT22;1616;52.394;9.756;2024-02-21T00:23:04;9.40;99.90
3208;DHT22;1616;52.394;9.756;2024-02-21T00:25:30;9.40;99.90
3208;DHT22;1616;52.394;9.756;2024-02-21T00:27:55;9.40;99.90
3208;DHT22;1616;52.394;9.756;2024-02-21T00:30:21;9.40;99.90
3208;DHT22;1616;52.394;9.756;2024-02-21T00:32:47;9.40;99.90
3208;DHT22;1616;52.394;9.756;2024-02-21T00:35:14;9.50;99.90
3208;DHT22;1616;52.394;9.756;2024-02-21T00:37:39;9.50;99.90
3208;DHT22;1616;52.394;9.756;2024-02-21T00:40:05;9.50;99.90
3208;DHT22;1616;52.394;9.756;2024-02-21T00:42:31;9.50;99.90
3208;DHT22;1616;52.394;9.756;2024-02-21T00:44:58;9.60;99.90
3208;DHT22;1616;52.394;9.756;2024-02-21T00:47:25;9.60;99.90
3208;DHT22;1616;52.394;9.756;2024-02-21T00:49:52;9.60;99.90
3208;DHT22;1616;52.394;9.756;2024-02-21T00:52:18;9.60;99.90
3208;DHT22;1616;52.394;9.756;2024-02-21T00:54:44;9.60;99.90
3208;DHT22;1616;52.394;9.756;2024-02-21T00:57:10;9.70;99.90
3208;DHT22;1616;52.394;9.756;2024-02-21T00:59:37;9.60;99.90
3208;DHT22;1616;52.394;9.756;2024-02-21T01:02:03;9.60;99.90
3208;DHT22;1616;52.394;9.756;2024-02-21T01:04:29;9.70;99.90
3208;DHT22;1616;52.394;9.756;2024-02-21T01:06:55;9.70;99.90
3208;DHT22;1616;52.394;9.756;2024-02-21T01:09:20;9.70;99.90
3208;DHT22;1616;52.394;9.756;2024-02-21T01:11:47;9.70;99.90
3208;DHT22;1616;52.394;9.756;2024-02-21T01:14:12;9.70;99.90
3208;DHT22;1616;52.394;9.756;2024-02-21T01:16:39;9.70;99.90
3208;DHT22;1616;52.394;9.756;2024-02-21T01:19:05;9.70;99.90
3208;DHT22;1616;52.394;9.756;2024-02-21T01:21:30;9.70;99.90
3208;DHT22;1616;52.394;9.756;2024-02-21T01:23:56;9.70;99.90
3208;DHT22;1616;52.394;9.756;2024-02-21T01:26:21;9.80;99.90
3208;DHT22;1616;52.394;9.756;2024-02-21T01:28:53;9.70;99.90
3208;DHT22;1616;52.394;9.756;2024-02-21T01:31:20;9.80;99.90
3208;DHT22;1616;52.394;9.756;2024-02-21T01:33:45;9.80;99.90
3208;DHT22;1616;52.394;9.756;2024-02-21T01:36:13;9.80;99.90
3208;DHT22;1616;52.394;9.756;2024-02-21T01:38:41;9.80;99.90
3208;DHT22;1616;52.394;9.756;2024-02-21T01:41:06;9.80;99.90
3208;DHT22;1616;52.394;9.756;2024-02-21T01:43:33;9.80;99.90
3208;DHT22;1616;52.394;9.756;2024-02-21T01:45:59;9.90;99.90
3208;DHT22;1616;52.394;9.756;2024-02-21T01:48:25;9.90;99.90
3208;DHT22;1616;52.394;9.756;2024-02-21T01:50:52;9.90;99.90
3208;DHT22;1616;52.394;9.756;2024-02-21T01:53:23;9.90;99.90
3208;DHT22;1616;52.394;9.756;2024-02-21T01:55:50;9.90;99.90
3208;DHT22;1616;52.394;9.756;2024-02-21T01:58:17;9.90;99.90
3208;DHT22;1616;52.394;9.756;2024-02-21T02:00:45;9.90;99.90
3208;DHT22;1616;52.394;9.756;2024-02-21T02:03:11;9.90;99.90
3208;DHT22;1616;52.394;9.756;2024-02-21T02:05:46;9.90;99.90
3208;DHT22;1616;52.394;9.756;2024-02-21T02:08:14;9.90;99.90
3208;DHT22;1616;52.394;9.756;2024-02-21T02:10:40;9.90;99.90
3208;DHT22;1616;52.394;9.756;2024-02-21T02:13:06;9.90;99.90
3208;DHT22;1616;52.394;9.756;2024-02-21T02:15:42;9.90;99.90
3208;DHT22;1616;52.394;9.756;2024-02-21T02:18:09;9.90;99.90
3208;DHT22;1616;52.394;9.756;2024-02-21T02:20:35;9.90;99.90
3208;DHT22;1616;52.394;9.756;2024-02-21T02:23:08;9.90;99.90
3208;DHT22;1616;52.394;9.756;2024-02-21T02:25:35;10.00;99.90
3208;DHT22;1616;52.394;9.756;2024-02-21T02:28:11;10.00;99.90
3208;DHT22;1616;52.394;9.756;2024-02-21T02:30:38;10.00;99.90
3208;DHT22;1616;52.394;9.756;2024-02-21T02:33:05;10.00;99.90
3208;DHT22;1616;52.394;9.756;2024-02-21T02:35:32;10.10;99.90
3208;DHT22;1616;52.394;9.756;2024-02-21T02:37:58;10.00;99.90
3208;DHT22;1616;52.394;9.756;2024-02-21T02:40:24;10.00;99.90
3208;DHT22;1616;52.394;9.756;2024-02-21T02:42:51;10.00;99.90
3208;DHT22;1616;52.394;9.756;2024-02-21T02:45:19;10.00;99.90
3208;DHT22;1616;52.394;9.756;2024-02-21T02:47:45;10.00;99.90
3208;DHT22;1616;52.394;9.756;2024-02-21T02:50:12;10.00;99.90
3208;DHT22;1616;52.394;9.756;2024-02-21T02:52:37;10.00;99.90
3208;DHT22;1616;52.394;9.756;2024-02-21T02:55:04;10.10;99.90
3208;DHT22;1616;52.394;9.756;2024-02-21T02:57:30;10.00;99.90
3208;DHT22;1616;52.394;9.756;2024-02-21T02:59:56;10.10;99.90
3208;DHT22;1616;52.394;9.756;2024-02-21T03:02:22;10.10;99.90
3208;DHT22;1616;52.394;9.756;2024-02-21T03:04:48;10.10;99.90
3208;DHT22;1616;52.394;9.756;2024-02-21T03:07:14;10.10;99.90
3208;DHT22;1616;52.394;9.756;2024-02-21T03:09:41;10.10;99.90
3208;DHT22;1616;52.394;9.756;2024-02-21T03:12:10;10.10;99.90
3208;DHT22;1616;52.394;9.756;2024-02-21T03:14:35;10.10;99.90
3208;DHT22;1616;52.394;9.756;2024-02-21T03:17:02;10.10;99.90
3208;DHT22;1616;52.394;9.756;2024-02-21T03:19:29;10.10;99.90
3208;DHT22;1616;52.394;9.756;2024-02-21T03:21:54;10.10;99.90
3208;DHT22;1616;52.394;9.756;2024-02-21T03:24:21;10.10;99.90
3208;DHT22;1616;52.394;9.756;2024-02-21T03:26:47;10.10;99.90
3208;DHT22;1616;52.394;9.756;2024-02-21T03:29:15;10.10;99.90
3208;DHT22;1616;52.394;9.756;2024-02-21T03:31:41;10.10;99.90
3208;DHT22;1616;52.394;9.756;2024-02-21T03:34:07;10.00;99.90
3208;DHT22;1616;52.394;9.756;2024-02-21T03:36:33;10.00;99.90
3208;DHT22;1616;52.394;9.756;2024-02-21T03:38:59;10.00;99.90
3208;DHT22;1616;52.394;9.756;2024-02-21T03:41:26;10.10;99.90
3208;DHT22;1616;52.394;9.756;2024-02-21T03:43:51;10.00;99.90
3208;DHT22;1616;52.394;9.756;2024-02-21T03:46:18;10.00;99.90
3208;DHT22;1616;52.394;9.756;2024-02-21T03:48:44;10.10;99.90
3208;DHT22;1616;52.394;9.756;2024-02-21T03:51:10;10.10;99.90
3208;DHT22;1616;52.394;9.756;2024-02-21T03:53:36;10.10;99.90
3208;DHT22;1616;52.394;9.756;2024-02-21T03:56:02;10.10;99.90
3208;DHT22;1616;52.394;9.756;2024-02-21T03:58:30;10.10;99.90
3208;DHT22;1616;52.394;9.756;2024-02-21T04:00:56;10.10;99.90
3208;DHT22;1616;52.394;9.756;2024-02-21T04:03:23;10.10;99.90
3208;DHT22;1616;52.394;9.756;2024-02-21T04:05:49;10.10;99.90
3208;DHT22;1616;52.394;9.756;2024-02-21T04:08:15;10.10;99.90
3208;DHT22;1616;52.394;9.756;2024-02-21T04:10:41;10.10;99.90
3208;DHT22;1616;52.394;9.756;2024-02-21T04:13:07;10.10;99.90
3208;DHT22;1616;52.394;9.756;2024-02-21T04:15:32;10.10;99.90
3208;DHT22;1616;52.394;9.756;2024-02-21T04:17:59;10.10;99.90
3208;DHT22;1616;52.394;9.756;2024-02-21T04:20:26;10.10;99.90
3208;DHT22;1616;52.394;9.756;2024-02-21T04:22:52;10.10;99.90
3208;DHT22;1616;52.394;9.756;2024-02-21T04:25:17;10.20;99.90
3208;DHT22;1616;52.394;9.756;2024-02-21T04:27:43;10.20;99.90
3208;DHT22;1616;52.394;9.756;2024-02-21T04:30:09;10.20;99.90
3208;DHT22;1616;52.394;9.756;2024-02-21T04:32:37;10.20;99.90
3208;DHT22;1616;52.394;9.756;2024-02-21T04:35:03;10.20;99.90
3208;DHT22;1616;52.394;9.756;2024-02-21T04:37:29;10.20;99.90
3208;DHT22;1616;52.394;9.756;2024-02-21T04:39:54;10.20;99.90
3208;DHT22;1616;52.394;9.756;2024-02-21T04:42:23;10.20;99.90
3208;DHT22;1616;52.394;9.756;2024-02-21T04:44:50;10.20;99.90
3208;DHT22;1616;52.394;9.756;2024-02-21T04:47:17;10.10;99.90
3208;DHT22;1616;52.394;9.756;2024-02-21T04:49:42;10.10;99.90
3208;DHT22;1616;52.394;9.756;2024-02-21T04:52:08;10.10;99.90
3208;DHT22;1616;52.394;9.756;2024-02-21T04:54:35;10.10;99.90
3208;DHT22;1616;52.394;9.756;2024-02-21T04:57:02;10.10;99.90
3208;DHT22;1616;52.394;9.756;2024-02-21T04:59:28;10.20;99.90
3208;DHT22;1616;52.394;9.756;2024-02-21T05:01:55;10.10;99.90
3208;DHT22;1616;52.394;9.756;2024-02-21T05:04:20;10.10;99.90
3208;DHT22;1616;52.394;9.756;2024-02-21T05:06:46;10.10;99.90
3208;DHT22;1616;52.394;9.756;2024-02-21T05:09:13;10.10;99.90
3208;DHT22;1616;52.394;9.756;2024-02-21T05:11:38;10.10;99.90
3208;DHT22;1616;52.394;9.756;2024-02-21T05:14:04;10.10;99.90
3208;DHT22;1616;52.394;9.756;2024-02-21T05:16:33;10.10;99.90
3208;DHT22;1616;52.394;9.756;2024-02-21T05:18:58;10.10;99.90
3208;DHT22;1616;52.394;9.756;2024-02-21T05:21:24;10.10;99.90
3208;DHT22;1616;52.394;9.756;2024-02-21T05:23:51;10.10;99.90
3208;DHT22;1616;52.394;9.756;2024-02-21T05:26:21;10.10;99.90
3208;DHT22;1616;52.394;9.756;2024-02-21T05:28:47;10.10;99.90
3208;DHT22;1616;52.394;9.756;2024-02-21T05:31:12;10.00;99.90
3208;DHT22;1616;52.394;9.756;2024-02-21T05:33:40;10.10;99.90
3208;DHT22;1616;52.394;9.756;2024-02-21T05:36:06;10.10;99.90
3208;DHT22;1616;52.394;9.756;2024-02-21T05:38:32;10.10;99.90
3208;DHT22;1616;52.394;9.756;2024-02-21T05:40:58;10.10;99.90
3208;DHT22;1616;52.394;9.756;2024-02-21T05:43:24;10.10;99.90
3208;DHT22;1616;52.394;9.756;2024-02-21T05:45:50;10.10;99.90
3208;DHT22;1616;52.394;9.756;2024-02-21T05:48:17;10.10;99.90
3208;DHT22;1616;52.394;9.756;2024-02-21T05:50:42;10.10;99.90
3208;DHT22;1616;52.394;9.756;2024-02-21T05:53:08;10.10;99.90
3208;DHT22;1616;52.394;9.756;2024-02-21T05:55:33;10.10;99.90
3208;DHT22;1616;52.394;9.756;2024-02-21T05:58:01;10.00;99.90
3208;DHT22;1616;52.394;9.756;2024-02-21T06:00:28;10.00;99.90
3208;DHT22;1616;52.394;9.756;2024-02-21T06:02:53;9.90;99.90
3208;DHT22;1616;52.394;9.756;2024-02-21T06:05:20;9.80;99.90
3208;DHT22;1616;52.394;9.756;2024-02-21T06:07:46;9.60;99.90
3208;DHT22;1616;52.394;9.756;2024-02-21T06:10:11;9.50;99.90
3208;DHT22;1616;52.394;9.756;2024-02-21T06:12:37;9.50;99.90
3208;DHT22;1616;52.394;9.756;2024-02-21T06:15:04;9.40;99.90
3208;DHT22;1616;52.394;9.756;2024-02-21T06:17:30;9.40;99.90
3208;DHT22;1616;52.394;9.756;2024-02-21T06:19:56;9.30;99.90
3208;DHT22;1616;52.394;9.756;2024-02-21T06:22:21;9.30;99.90
3208;DHT22;1616;52.394;9.756;2024-02-21T06:24:47;9.30;99.90
3208;DHT22;1616;52.394;9.756;2024-02-21T06:27:12;9.30;99.90
3208;DHT22;1616;52.394;9.756;2024-02-21T06:29:41;9.40;99.90
3208;DHT22;1616;52.394;9.756;2024-02-21T06:32:07;9.40;99.90
3208;DHT22;1616;52.394;9.756;2024-02-21T06:34:34;9.50;99.90
3208;DHT22;1616;52.394;9.756;2024-02-21T06:36:59;9.50;99.90
3208;DHT22;1616;52.394;9.756;2024-02-21T06:39:25;9.50;99.90
3208;DHT22;1616;52.394;9.756;2024-02-21T06:41:52;9.60;99.90
3208;DHT22;1616;52.394;9.756;2024-02-21T06:44:19;9.60;99.90
3208;DHT22;1616;52.394;9.756;2024-02-21T06:46:45;9.60;99.90
3208;DHT22;1616;52.394;9.756;2024-02-21T06:49:11;9.60;99.90
3208;DHT22;1616;52.394;9.756;2024-02-21T06:51:42;9.70;99.90
3208;DHT22;1616;52.394;9.756;2024-02-21T06:54:09;9.70;99.90
3208;DHT22;1616;52.394;9.756;2024-02-21T06:56:37;9.70;99.90
3208;DHT22;1616;52.394;9.756;2024-02-21T06:59:06;9.70;99.90
3208;DHT22;1616;52.394;9.756;2024-02-21T07:01:32;9.80;99.90
3208;DHT22;1616;52.394;9.756;2024-02-21T07:03:58;9.80;99.90
3208;DHT22;1616;52.394;9.756;2024-02-21T07:06:24;9.80;99.90
3208;DHT22;1616;52.394;9.756;2024-02-21T07:08:50;9.80;99.90
3208;DHT22;1616;52.394;9.756;2024-02-21T07:11:15;9.80;99.90
3208;DHT22;1616;52.394;9.756;2024-02-21T07:13:41;9.90;99.90
3208;DHT22;1616;52.394;9.756;2024-02-21T07:16:07;9.80;99.90
3208;DHT22;1616;52.394;9.756;2024-02-21T07:18:33;9.80;99.90
3208;DHT22;1616;52.394;9.756;2024-02-21T07:20:59;9.90;99.90
3208;DHT22;1616;52.394;9.756;2024-02-21T07:23:25;9.80;99.90
3208;DHT22;1616;52.394;9.756;2024-02-21T07:25:51;9.80;99.90
3208;DHT22;1616;52.394;9.756;2024-02-21T07:28:17;9.80;99.90
3208;DHT22;1616;52.394;9.756;2024-02-21T07:30:43;9.80;99.90
3208;DHT22;1616;52.394;9.756;2024-02-21T07:33:09;9.90;99.90
3208;DHT22;1616;52.394;9.756;2024-02-21T07:35:35;9.90;99.90
3208;DHT22;1616;52.394;9.756;2024-02-21T07:38:04;9.90;99.90
3208;DHT22;1616;52.394;9.756;2024-02-21T07:40:31;9.90;99.90
3208;DHT22;1616;52.394;9.756;2024-02-21T07:42:57;9.90;99.90
3208;DHT22;1616;52.394;9.756;2024-02-21T07:45:22;9.90;99.90
3208;DHT22;1616;52.394;9.756;2024-02-21T07:47:50;9.90;99.90
3208;DHT22;1616;52.394;9.756;2024-02-21T07:50:17;9.90;99.90
3208;DHT22;1616;52.394;9.756;2024-02-21T07:52:43;10.00;99.90
3208;DHT22;1616;52.394;9.756;2024-02-21T07:55:09;10.10;99.90
3208;DHT22;1616;52.394;9.756;2024-02-21T07:57:37;10.10;99.90
3208;DHT22;1616;52.394;9.756;2024-02-21T08:00:04;10.20;99.90
3208;DHT22;1616;52.394;9.756;2024-02-21T08:02:31;10.20;99.90
3208;DHT22;1616;52.394;9.756;2024-02-21T08:04:56;10.30;99.90
3208;DHT22;1616;52.394;9.756;2024-02-21T08:07:22;10.30;99.90
3208;DHT22;1616;52.394;9.756;2024-02-21T08:09:51;10.30;99.90
3208;DHT22;1616;52.394;9.756;2024-02-21T08:12:16;10.30;99.90
3208;DHT22;1616;52.394;9.756;2024-02-21T08:14:43;10.40;99.90
3208;DHT22;1616;52.394;9.756;2024-02-21T08:17:11;10.40;99.90
3208;DHT22;1616;52.394;9.756;2024-02-21T08:19:38;10.50;99.90
3208;DHT22;1616;52.394;9.756;2024-02-21T08:22:03;10.50;99.90
3208;DHT22;1616;52.394;9.756;2024-02-21T08:24:29;10.60;99.90
3208;DHT22;1616;52.394;9.756;2024-02-21T08:26:56;10.60;99.90
3208;DHT22;1616;52.394;9.756;2024-02-21T08:29:21;10.70;99.90
3208;DHT22;1616;52.394;9.756;2024-02-21T08:31:47;10.70;99.90
3208;DHT22;1616;52.394;9.756;2024-02-21T08:34:13;10.80;99.90
3208;DHT22;1616;52.394;9.756;2024-02-21T08:36:39;10.80;99.90
3208;DHT22;1616;52.394;9.756;2024-02-21T08:39:07;10.90;99.90
3208;DHT22;1616;52.394;9.756;2024-02-21T08:41:35;10.90;99.90
3208;DHT22;1616;52.394;9.756;2024-02-21T08:44:01;11.00;99.90
3208;DHT22;1616;52.394;9.756;2024-02-21T08:46:27;11.00;99.90
3208;DHT22;1616;52.394;9.756;2024-02-21T08:48:55;11.10;99.90
3208;DHT22;1616;52.394;9.756;2024-02-21T08:51:23;11.10;99.90
3208;DHT22;1616;52.394;9.756;2024-02-21T08:53:48;11.20;99.90
3208;DHT22;1616;52.394;9.756;2024-02-21T08:56:17;11.30;99.90
3208;DHT22;1616;52.394;9.756;2024-02-21T08:58:43;11.40;99.90
3208;DHT22;1616;52.394;9.756;2024-02-21T09:01:09;11.50;99.90
3208;DHT22;1616;52.394;9.756;2024-02-21T09:03:38;11.50;99.90
3208;DHT22;1616;52.394;9.756;2024-02-21T09:06:07;11.60;99.90
3208;DHT22;1616;52.394;9.756;2024-02-21T09:08:34;11.70;99.90
3208;DHT22;1616;52.394;9.756;2024-02-21T09:11:02;11.80;99.90
3208;DHT22;1616;52.394;9.756;2024-02-21T09:13:28;11.80;99.90
3208;DHT22;1616;52.394;9.756;2024-02-21T09:15:55;11.90;99.90
3208;DHT22;1616;52.394;9.756;2024-02-21T09:18:22;12.00;99.90
3208;DHT22;1616;52.394;9.756;2024-02-21T09:20:47;12.10;99.90
3208;DHT22;1616;52.394;9.756;2024-02-21T09:23:13;12.20;99.90
3208;DHT22;1616;52.394;9.756;2024-02-21T09:25:40;12.30;99.90
3208;DHT22;1616;52.394;9.756;2024-02-21T09:28:06;12.40;99.90
3208;DHT22;1616;52.394;9.756;2024-02-21T09:30:32;12.50;99.90
3208;DHT22;1616;52.394;9.756;2024-02-21T09:32:58;12.60;99.90
3208;DHT22;1616;52.394;9.756;2024-02-21T09:35:27;12.80;99.90
3208;DHT22;1616;52.394;9.756;2024-02-21T09:37:54;12.90;99.90
3208;DHT22;1616;52.394;9.756;2024-02-21T09:40:22;13.00;99.90
3208;DHT22;1616;52.394;9.756;2024-02-21T09:42:48;13.20;99.90
3208;DHT22;1616;52.394;9.756;2024-02-21T09:45:21;13.30;99.90
3208;DHT22;1616;52.394;9.756;2024-02-21T09:48:10;13.40;99.90
3208;DHT22;1616;52.394;9.756;2024-02-21T09:50:40;13.40;99.90
3208;DHT22;1616;52.394;9.756;2024-02-21T09:53:09;13.30;99.90
3208;DHT22;1616;52.394;9.756;2024-02-21T09:55:38;13.20;99.90
3208;DHT22;1616;52.394;9.756;2024-02-21T09:58:07;13.20;99.90
3208;DHT22;1616;52.394;9.756;2024-02-21T10:00:33;13.20;99.90
3208;DHT22;1616;52.394;9.756;2024-02-21T10:02:59;13.20;99.90
3208;DHT22;1616;52.394;9.756;2024-02-21T10:05:25;13.10;99.90
3208;DHT22;1616;52.394;9.756;2024-02-21T10:07:51;13.10;99.90
3208;DHT22;1616;52.394;9.756;2024-02-21T10:10:17;13.10;99.90
3208;DHT22;1616;52.394;9.756;2024-02-21T10:12:50;13.10;99.90
3208;DHT22;1616;52.394;9.756;2024-02-21T10:15:21;13.00;99.90
3208;DHT22;1616;52.394;9.756;2024-02-21T10:17:59;13.00;99.90
3208;DHT22;1616;52.394;9.756;2024-02-21T10:20:25;13.10;99.90
3208;DHT22;1616;52.394;9.756;2024-02-21T10:23:03;13.10;99.90
3208;DHT22;1616;52.394;9.756;2024-02-21T10:25:36;13.20;99.90
3208;DHT22;1616;52.394;9.756;2024-02-21T10:28:07;13.30;99.90
3208;DHT22;1616;52.394;9.756;2024-02-21T10:30:33;13.30;99.90
3208;DHT22;1616;52.394;9.756;2024-02-21T10:32:58;13.30;99.90
3208;DHT22;1616;52.394;9.756;2024-02-21T10:35:31;13.20;99.90
3208;DHT22;1616;52.394;9.756;2024-02-21T10:37:58;13.20;99.90
3208;DHT22;1616;52.394;9.756;2024-02-21T10:40:29;13.20;99.90
3208;DHT22;1616;52.394;9.756;2024-02-21T10:42:58;13.10;99.50
3208;DHT22;1616;52.394;9.756;2024-02-21T10:45:31;13.10;99.90
3208;DHT22;1616;52.394;9.756;2024-02-21T10:48:12;13.20;99.80
3208;DHT22;1616;52.394;9.756;2024-02-21T10:53:24;13.30;99.10
3208;DHT22;1616;52.394;9.756;2024-02-21T10:56:26;13.50;99.20
3208;DHT22;1616;52.394;9.756;2024-02-21T10:58:52;13.70;99.50
3208;DHT22;1616;52.394;9.756;2024-02-21T11:01:18;13.90;98.90
3208;DHT22;1616;52.394;9.756;2024-02-21T11:03:49;14.00;98.80
3208;DHT22;1616;52.394;9.756;2024-02-21T11:06:22;14.30;97.70
3208;DHT22;1616;52.394;9.756;2024-02-21T11:09:08;14.30;96.50
3208;DHT22;1616;52.394;9.756;2024-02-21T11:14:10;14.40;95.80
3208;DHT22;1616;52.394;9.756;2024-02-21T11:16:38;14.40;95.50
3208;DHT22;1616;52.394;9.756;2024-02-21T11:19:31;14.50;95.00
3208;DHT22;1616;52.394;9.756;2024-02-21T11:21:58;14.50;94.40
3208;DHT22;1616;52.394;9.756;2024-02-21T11:24:33;14.70;95.10
3208;DHT22;1616;52.394;9.756;2024-02-21T11:27:09;14.80;95.20
3208;DHT22;1616;52.394;9.756;2024-02-21T11:29:43;15.10;92.70
3208;DHT22;1616;52.394;9.756;2024-02-21T11:32:15;15.30;92.70
3208;DHT22;1616;52.394;9.756;2024-02-21T11:34:41;15.40;91.90
3208;DHT22;1616;52.394;9.756;2024-02-21T11:37:14;15.50;91.90
3208;DHT22;1616;52.394;9.756;2024-02-21T11:39:43;15.60;91.10
3208;DHT22;1616;52.394;9.756;2024-02-21T11:42:09;15.70;90.20
3208;DHT22;1616;52.394;9.756;2024-02-21T11:44:38;15.60;87.50
3208;DHT22;1616;52.394;9.756;2024-02-21T11:47:05;15.70;89.70
3208;DHT22;1616;52.394;9.756;2024-02-21T11:49:36;15.80;87.50
3208;DHT22;1616;52.394;9.756;2024-02-21T11:52:03;15.70;87.40
3208;DHT22;1616;52.394;9.756;2024-02-21T11:54:33;15.60;87.50
3208;DHT22;1616;52.394;9.756;2024-02-21T11:57:00;15.50;87.10
3208;DHT22;1616;52.394;9.756;2024-02-21T11:59:30;15.50;87.20
3208;DHT22;1616;52.394;9.756;2024-02-21T12:01:59;15.40;87.10
3208;DHT22;1616;52.394;9.756;2024-02-21T12:04:25;15.40;87.10
3208;DHT22;1616;52.394;9.756;2024-02-21T12:06:53;15.40;87.20
3208;DHT22;1616;52.394;9.756;2024-02-21T12:09:19;15.20;86.90
3208;DHT22;1616;52.394;9.756;2024-02-21T12:11:45;15.20;87.00
3208;DHT22;1616;52.394;9.756;2024-02-21T12:14:18;15.00;86.60
3208;DHT22;1616;52.394;9.756;2024-02-21T12:16:47;14.90;86.70
3208;DHT22;1616;52.394;9.756;2024-02-21T12:19:15;14.90;86.60
3208;DHT22;1616;52.394;9.756;2024-02-21T12:21:42;14.90;86.60
3208;DHT22;1616;52.394;9.756;2024-02-21T12:26:42;15.00;86.70
3208;DHT22;1616;52.394;9.756;2024-02-21T12:29:08;15.10;86.70
3208;DHT22;1616;52.394;9.756;2024-02-21T12:31:40;15.20;85.90
3208;DHT22;1616;52.394;9.756;2024-02-21T12:34:06;15.30;83.20
3208;DHT22;1616;52.394;9.756;2024-02-21T12:36:32;15.40;83.50
3208;DHT22;1616;52.394;9.756;2024-02-21T12:39:00;15.40;83.20
3208;DHT22;1616;52.394;9.756;2024-02-21T12:41:28;15.60;82.30
3208;DHT22;1616;52.394;9.756;2024-02-21T12:43:55;15.60;80.10
3208;DHT22;1616;52.394;9.756;2024-02-21T12:46:22;15.60;79.90
3208;DHT22;1616;52.394;9.756;2024-02-21T12:48:50;15.70;79.60
3208;DHT22;1616;52.394;9.756;2024-02-21T12:51:16;15.60;79.10
3208;DHT22;1616;52.394;9.756;2024-02-21T12:53:47;15.70;78.00
3208;DHT22;1616;52.394;9.756;2024-02-21T12:56:13;15.70;78.10
3208;DHT22;1616;52.394;9.756;2024-02-21T12:58:39;15.60;77.90
3208;DHT22;1616;52.394;9.756;2024-02-21T13:01:05;15.60;77.50
3208;DHT22;1616;52.394;9.756;2024-02-21T13:03:32;15.60;78.30
3208;DHT22;1616;52.394;9.756;2024-02-21T13:05:58;15.60;78.70
3208;DHT22;1616;52.394;9.756;2024-02-21T13:08:25;15.60;78.20
3208;DHT22;1616;52.394;9.756;2024-02-21T13:10:50;15.60;78.00
3208;DHT22;1616;52.394;9.756;2024-02-21T13:13:17;15.60;77.90
3208;DHT22;1616;52.394;9.756;2024-02-21T13:15:45;15.70;77.40
3208;DHT22;1616;52.394;9.756;2024-02-21T13:18:10;15.60;76.20
3208;DHT22;1616;52.394;9.756;2024-02-21T13:20:36;15.50;75.90
3208;DHT22;1616;52.394;9.756;2024-02-21T13:23:03;15.30;76.30
3208;DHT22;1616;52.394;9.756;2024-02-21T13:25:31;15.30;77.10
3208;DHT22;1616;52.394;9.756;2024-02-21T13:27:56;15.20;76.40
3208;DHT22;1616;52.394;9.756;2024-02-21T13:30:22;15.10;76.50
3208;DHT22;1616;52.394;9.756;2024-02-21T13:32:48;15.00;77.00
3208;DHT22;1616;52.394;9.756;2024-02-21T13:35:15;14.90;77.10
3208;DHT22;1616;52.394;9.756;2024-02-21T13:37:46;14.80;77.60
3208;DHT22;1616;52.394;9.756;2024-02-21T13:40:12;14.70;77.90
3208;DHT22;1616;52.394;9.756;2024-02-21T13:42:39;14.60;77.90
3208;DHT22;1616;52.394;9.756;2024-02-21T13:45:06;14.60;78.50
3208;DHT22;1616;52.394;9.756;2024-02-21T13:47:34;14.50;78.60
3208;DHT22;1616;52.394;9.756;2024-02-21T13:50:02;14.30;77.80
3208;DHT22;1616;52.394;9.756;2024-02-21T13:52:31;14.30;78.00
3208;DHT22;1616;52.394;9.756;2024-02-21T13:54:59;14.10;78.70
3208;DHT22;1616;52.394;9.756;2024-02-21T13:57:27;14.00;79.10
3208;DHT22;1616;52.394;9.756;2024-02-21T13:59:53;13.90;79.40
3208;DHT22;1616;52.394;9.756;2024-02-21T14:02:18;13.90;79.90
3208;DHT22;1616;52.394;9.756;2024-02-21T14:04:44;13.80;82.00
3208;DHT22;1616;52.394;9.756;2024-02-21T14:07:10;13.70;80.20
3208;DHT22;1616;52.394;9.756;2024-02-21T14:09:35;13.70;79.90
3208;DHT22;1616;52.394;9.756;2024-02-21T14:12:02;13.60;79.90
3208;DHT22;1616;52.394;9.756;2024-02-21T14:14:29;13.50;79.50
3208;DHT22;1616;52.394;9.756;2024-02-21T14:16:54;13.50;80.00
3208;DHT22;1616;52.394;9.756;2024-02-21T14:19:21;13.40;80.70
3208;DHT22;1616;52.394;9.756;2024-02-21T14:21:47;13.40;80.90
3208;DHT22;1616;52.394;9.756;2024-02-21T14:24:15;13.40;81.50
3208;DHT22;1616;52.394;9.756;2024-02-21T14:26:40;13.30;82.20
3208;DHT22;1616;52.394;9.756;2024-02-21T14:29:07;13.30;82.50
3208;DHT22;1616;52.394;9.756;2024-02-21T14:31:33;13.30;82.50
3208;DHT22;1616;52.394;9.756;2024-02-21T14:34:00;13.30;82.10
3208;DHT22;1616;52.394;9.756;2024-02-21T14:36:29;13.20;82.30
3208;DHT22;1616;52.394;9.756;2024-02-21T14:38:55;13.20;82.40
3208;DHT22;1616;52.394;9.756;2024-02-21T14:41:22;13.10;83.10
3208;DHT22;1616;52.394;9.756;2024-02-21T14:43:47;13.10;83.90
3208;DHT22;1616;52.394;9.756;2024-02-21T14:46:13;13.10;83.50
3208;DHT22;1616;52.394;9.756;2024-02-21T14:48:39;13.10;84.50
3208;DHT22;1616;52.394;9.756;2024-02-21T14:51:05;13.00;84.80
3208;DHT22;1616;52.394;9.756;2024-02-21T14:53:30;13.00;84.70
3208;DHT22;1616;52.394;9.756;2024-02-21T14:55:58;12.90;84.60
3208;DHT22;1616;52.394;9.756;2024-02-21T14:58:26;12.90;85.00
3208;DHT22;1616;52.394;9.756;2024-02-21T15:00:52;12.80;84.50
3208;DHT22;1616;52.394;9.756;2024-02-21T15:03:19;12.80;84.50
3208;DHT22;1616;52.394;9.756;2024-02-21T15:05:48;12.70;84.50
3208;DHT22;1616;52.394;9.756;2024-02-21T15:08:15;12.70;86.30
3208;DHT22;1616;52.394;9.756;2024-02-21T15:10:44;12.60;87.40
3208;DHT22;1616;52.394;9.756;2024-02-21T15:13:11;12.60;88.90
3208;DHT22;1616;52.394;9.756;2024-02-21T15:15:38;12.50;89.50
3208;DHT22;1616;52.394;9.756;2024-02-21T15:18:04;12.50;90.10
3208;DHT22;1616;52.394;9.756;2024-02-21T15:20:30;12.40;90.50
3208;DHT22;1616;52.394;9.756;2024-02-21T15:22:55;12.40;90.70
3208;DHT22;1616;52.394;9.756;2024-02-21T15:25:21;12.40;90.90
3208;DHT22;1616;52.394;9.756;2024-02-21T15:27:47;12.30;91.20
3208;DHT22;1616;52.394;9.756;2024-02-21T15:30:14;12.30;91.30
3208;DHT22;1616;52.394;9.756;2024-02-21T15:32:41;12.30;91.40
3208;DHT22;1616;52.394;9.756;2024-02-21T15:35:10;12.20;91.50
3208;DHT22;1616;52.394;9.756;2024-02-21T15:37:37;12.30;91.80
3208;DHT22;1616;52.394;9.756;2024-02-21T15:40:03;12.30;91.90
3208;DHT22;1616;52.394;9.756;2024-02-21T15:42:29;12.20;92.00
3208;DHT22;1616;52.394;9.756;2024-02-21T15:44:54;12.10;92.20
3208;DHT22;1616;52.394;9.756;2024-02-21T15:47:20;12.10;92.40
3208;DHT22;1616;52.394;9.756;2024-02-21T15:49:49;12.00;92.60
3208;DHT22;1616;52.394;9.756;2024-02-21T15:52:15;11.90;92.90
3208;DHT22;1616;52.394;9.756;2024-02-21T15:54:41;11.90;93.10
3208;DHT22;1616;52.394;9.756;2024-02-21T15:57:08;11.80;93.50
3208;DHT22;1616;52.394;9.756;2024-02-21T15:59:34;11.70;93.60
3208;DHT22;1616;52.394;9.756;2024-02-21T16:02:02;11.70;94.00
3208;DHT22;1616;52.394;9.756;2024-02-21T16:04:29;11.60;94.10
3208;DHT22;1616;52.394;9.756;2024-02-21T16:06:56;11.60;94.30
3208;DHT22;1616;52.394;9.756;2024-02-21T16:09:28;11.60;94.60
3208;DHT22;1616;52.394;9.756;2024-02-21T16:11:57;11.50;94.70
3208;DHT22;1616;52.394;9.756;2024-02-21T16:14:24;11.40;95.00